createdAt,value
2018-03-27T00:01:51.499Z,8.80
2018-03-27T00:06:54.125Z,8.80
2018-03-27T00:11:56.701Z,8.80
2018-03-27T00:17:02.535Z,8.80
2018-03-27T00:22:05.118Z,8.80
2018-03-27T00:27:07.257Z,8.80
2018-03-27T00:32:24.570Z,8.90
2018-03-27T00:37:39.305Z,8.90
2018-03-27T00:42:43.719Z,8.80
2018-03-27T00:47:46.926Z,8.80
2018-03-27T00:52:50.288Z,8.70
2018-03-27T00:57:52.883Z,8.70
2018-03-27T01:02:57.350Z,8.80
2018-03-27T01:08:01.070Z,8.70
2018-03-27T01:13:03.665Z,8.60
2018-03-27T01:18:06.274Z,8.20
2018-03-27T01:23:08.859Z,8.40
2018-03-27T01:28:11.453Z,8.30
2018-03-27T01:33:14.070Z,8.10
2018-03-27T01:38:16.684Z,8.30
2018-03-27T01:43:19.274Z,8.30
2018-03-27T01:48:21.852Z,8.30
2018-03-27T01:53:24.472Z,8.30
2018-03-27T01:58:27.078Z,8.40
2018-03-27T02:03:29.670Z,8.40
2018-03-27T02:08:32.909Z,8.30
2018-03-27T02:13:41.187Z,8.20
2018-03-27T02:18:49.313Z,8.00
2018-03-27T02:23:56.760Z,7.90
2018-03-27T02:29:06.432Z,8.00
2018-03-27T02:34:09.040Z,7.90
2018-03-27T02:39:11.630Z,7.80
2018-03-27T02:44:14.896Z,7.80
2018-03-27T02:49:18.260Z,7.90
2018-03-27T02:54:20.863Z,7.80
2018-03-27T02:59:23.574Z,7.70
2018-03-27T03:04:26.493Z,7.50
2018-03-27T03:09:32.753Z,7.30
2018-03-27T03:14:35.338Z,7.00
2018-03-27T03:19:38.024Z,6.80
2018-03-27T03:24:43.267Z,6.60
2018-03-27T03:29:46.613Z,6.60
2018-03-27T03:34:49.757Z,6.60
2018-03-27T03:39:52.365Z,6.70
2018-03-27T03:44:54.970Z,6.90
2018-03-27T03:49:57.556Z,7.00
2018-03-27T03:55:02.070Z,7.00
2018-03-27T04:00:04.656Z,7.00
2018-03-27T04:05:09.685Z,6.80
2018-03-27T04:10:13.029Z,6.30
2018-03-27T04:15:18.274Z,6.30
2018-03-27T04:20:21.621Z,6.50
2018-03-27T04:25:25.428Z,6.50
2018-03-27T04:30:28.844Z,6.60
2018-03-27T04:35:32.678Z,6.90
2018-03-27T04:40:35.264Z,6.90
2018-03-27T04:45:38.637Z,7.30
2018-03-27T04:50:41.238Z,7.20
2018-03-27T04:55:44.246Z,7.20
2018-03-27T05:00:46.827Z,7.00
2018-03-27T05:05:49.417Z,6.90
2018-03-27T05:10:51.990Z,7.10
2018-03-27T05:15:54.612Z,7.20
2018-03-27T05:20:57.203Z,7.10
2018-03-27T05:25:59.821Z,7.20
2018-03-27T05:31:08.469Z,7.10
2018-03-27T05:36:11.062Z,7.20
2018-03-27T05:41:16.375Z,7.00
2018-03-27T05:46:18.966Z,7.10
2018-03-27T05:51:24.020Z,7.20
2018-03-27T05:56:27.450Z,7.30
2018-03-27T06:01:30.047Z,7.30
2018-03-27T06:06:32.642Z,7.20
2018-03-27T06:11:36.633Z,7.20
2018-03-27T06:16:39.225Z,7.30
2018-03-27T06:21:42.604Z,6.90
2018-03-27T06:26:45.781Z,6.90
2018-03-27T06:31:48.404Z,6.90
2018-03-27T06:36:50.982Z,7.00
2018-03-27T06:41:53.837Z,7.30
2018-03-27T06:46:59.047Z,7.00
2018-03-27T06:52:01.648Z,6.90
2018-03-27T06:57:04.245Z,7.00
2018-03-27T07:02:07.379Z,6.90
2018-03-27T07:07:10.009Z,7.20
2018-03-27T07:12:12.635Z,7.10
2018-03-27T07:17:15.986Z,7.30
2018-03-27T07:22:19.305Z,7.30
2018-03-27T07:27:25.408Z,7.20
2018-03-27T07:32:28.090Z,7.30
2018-03-27T07:37:30.620Z,7.40
2018-03-27T07:42:33.212Z,7.40
2018-03-27T07:47:37.705Z,7.50
2018-03-27T07:52:41.537Z,7.70
2018-03-27T07:57:44.120Z,7.70
2018-03-27T08:02:46.712Z,7.70
2018-03-27T08:07:52.107Z,8.30
2018-03-27T08:12:55.169Z,8.30
2018-03-27T08:17:57.988Z,8.50
2018-03-27T08:23:01.960Z,8.80
2018-03-27T08:28:04.572Z,9.10
2018-03-27T08:33:08.587Z,9.40
2018-03-27T08:38:11.221Z,9.50
2018-03-27T08:43:16.512Z,9.90
2018-03-27T08:48:19.914Z,11.80
2018-03-27T08:53:22.543Z,11.80
2018-03-27T08:58:25.962Z,12.40
2018-03-27T09:03:29.360Z,11.60
2018-03-27T09:08:32.581Z,11.60
2018-03-27T09:13:35.228Z,10.60
2018-03-27T09:18:37.842Z,10.80
2018-03-27T09:23:40.466Z,10.30
2018-03-27T09:28:43.079Z,10.10
2018-03-27T09:33:45.700Z,10.10
2018-03-27T09:38:48.305Z,10.30
2018-03-27T09:43:50.910Z,10.30
2018-03-27T09:48:54.294Z,9.70
2018-03-27T09:53:56.895Z,9.70
2018-03-27T09:58:59.494Z,9.60
2018-03-27T10:04:02.093Z,9.70
2018-03-27T10:09:05.647Z,10.10
2018-03-27T10:14:08.248Z,10.80
2018-03-27T10:19:11.612Z,10.60
2018-03-27T10:24:14.230Z,10.60
2018-03-27T10:29:16.819Z,11.10
2018-03-27T10:34:19.420Z,11.50
2018-03-27T10:39:22.413Z,11.80
2018-03-27T10:44:25.037Z,11.70
2018-03-27T10:49:27.630Z,12.20
2018-03-27T10:54:30.250Z,12.60
2018-03-27T10:59:32.866Z,12.90
2018-03-27T11:04:35.494Z,12.90
2018-03-27T11:09:38.082Z,12.90
2018-03-27T11:14:41.464Z,12.60
2018-03-27T11:19:44.058Z,12.60
2018-03-27T11:24:47.295Z,12.90
2018-03-27T11:29:50.502Z,12.90
2018-03-27T11:34:53.115Z,12.70
2018-03-27T11:39:55.724Z,12.70
2018-03-27T11:44:58.309Z,13.00
2018-03-27T11:50:00.910Z,13.10
2018-03-27T11:55:03.574Z,13.30
2018-03-27T12:00:06.919Z,13.20
2018-03-27T12:05:09.517Z,13.20
2018-03-27T12:10:12.130Z,13.20
2018-03-27T12:15:14.791Z,13.10
2018-03-27T12:20:18.125Z,13.30
2018-03-27T12:25:20.713Z,13.30
2018-03-27T12:30:23.346Z,13.40
2018-03-27T12:35:25.941Z,13.70
2018-03-27T12:40:29.464Z,14.10
2018-03-27T12:45:32.074Z,14.10
2018-03-27T12:50:35.460Z,13.70
2018-03-27T12:55:38.058Z,13.70
2018-03-27T13:00:40.648Z,14.00
2018-03-27T13:05:48.141Z,13.50
2018-03-27T13:10:50.719Z,13.60
2018-03-27T13:15:53.321Z,13.60
2018-03-27T13:20:55.924Z,13.40
2018-03-27T13:25:58.509Z,13.80
2018-03-27T13:31:01.109Z,13.80
2018-03-27T13:36:03.696Z,13.40
2018-03-27T13:41:06.294Z,13.50
2018-03-27T13:46:08.894Z,13.50
2018-03-27T13:51:11.510Z,14.10
2018-03-27T13:56:14.113Z,15.00
2018-03-27T14:01:16.722Z,15.50
2018-03-27T14:06:19.322Z,16.10
2018-03-27T14:11:21.913Z,16.50
2018-03-27T14:16:25.062Z,16.80
2018-03-27T14:21:27.649Z,17.70
2018-03-27T14:26:30.997Z,18.00
2018-03-27T14:31:36.240Z,18.00
2018-03-27T14:36:40.544Z,17.90
2018-03-27T14:41:44.568Z,16.50
2018-03-27T14:46:47.915Z,16.40
2018-03-27T14:51:50.502Z,16.00
2018-03-27T14:56:53.951Z,15.70
2018-03-27T15:01:56.537Z,15.50
2018-03-27T15:06:59.135Z,15.50
2018-03-27T15:12:02.492Z,15.40
2018-03-27T15:17:05.220Z,15.30
2018-03-27T15:22:09.810Z,15.40
2018-03-27T15:27:14.266Z,15.40
2018-03-27T15:32:16.876Z,15.40
2018-03-27T15:37:19.471Z,15.40
2018-03-27T15:42:23.545Z,15.50
2018-03-27T15:47:26.146Z,15.20
2018-03-27T15:52:28.730Z,15.00
2018-03-27T15:57:31.341Z,14.60
2018-03-27T16:02:33.940Z,14.30
2018-03-27T16:07:37.388Z,13.70
2018-03-27T16:12:39.973Z,13.60
2018-03-27T16:17:43.226Z,13.60
2018-03-27T16:22:46.583Z,13.70
2018-03-27T16:27:49.465Z,13.60
2018-03-27T16:32:52.877Z,13.40
2018-03-27T16:37:55.458Z,12.80
2018-03-27T16:42:58.826Z,11.50
2018-03-27T16:48:01.425Z,11.40
2018-03-27T16:53:04.674Z,11.50
2018-03-27T16:58:07.264Z,11.80
2018-03-27T17:03:10.109Z,11.70
2018-03-27T17:08:13.373Z,11.30
2018-03-27T17:13:15.985Z,11.00
2018-03-27T17:18:18.592Z,11.00
2018-03-27T17:23:21.222Z,11.00
2018-03-27T17:28:24.273Z,11.30
2018-03-27T17:33:27.158Z,11.20
2018-03-27T17:38:30.045Z,11.00
2018-03-27T17:43:32.661Z,11.00
2018-03-27T17:48:35.522Z,10.80
2018-03-27T17:53:38.696Z,10.50
2018-03-27T17:58:41.301Z,10.50
2018-03-27T18:03:44.255Z,10.20
2018-03-27T18:08:47.629Z,9.90
2018-03-27T18:13:51.973Z,9.80
2018-03-27T18:18:56.497Z,9.80
2018-03-27T18:23:59.134Z,9.80
2018-03-27T18:29:03.130Z,9.60
2018-03-27T18:34:05.849Z,9.60
2018-03-27T18:39:09.217Z,9.70
2018-03-27T18:44:11.802Z,9.70
2018-03-27T18:49:14.413Z,9.50
2018-03-27T18:54:17.020Z,9.20
2018-03-27T18:59:19.937Z,9.00
2018-03-27T19:04:23.017Z,9.00
2018-03-27T19:09:26.217Z,9.10
2018-03-27T19:14:29.081Z,9.20
2018-03-27T19:19:31.706Z,8.90
2018-03-27T19:24:35.930Z,8.90
2018-03-27T19:29:39.401Z,8.90
2018-03-27T19:34:42.453Z,8.70
2018-03-27T19:39:45.046Z,8.30
2018-03-27T19:44:47.905Z,8.20
2018-03-27T19:49:50.531Z,8.10
2018-03-27T19:54:53.167Z,8.20
2018-03-27T19:59:55.768Z,7.90
2018-03-27T20:04:58.359Z,8.00
2018-03-27T20:10:00.984Z,7.90
2018-03-27T20:15:06.718Z,7.40
2018-03-27T20:20:09.753Z,7.40
2018-03-27T20:25:12.351Z,7.30
2018-03-27T20:30:22.121Z,7.50
2018-03-27T20:35:25.050Z,7.60
2018-03-27T20:40:28.414Z,7.90
2018-03-27T20:45:31.580Z,7.90
2018-03-27T20:50:34.212Z,8.10
2018-03-27T20:55:36.803Z,8.20
2018-03-27T21:00:42.068Z,8.20
2018-03-27T21:05:48.213Z,8.20
2018-03-27T21:10:51.576Z,8.20
2018-03-27T21:15:54.599Z,8.20
2018-03-27T21:20:57.491Z,7.90
2018-03-27T21:26:00.078Z,7.80
2018-03-27T21:31:02.669Z,7.90
2018-03-27T21:36:07.880Z,7.90
2018-03-27T21:41:10.485Z,8.00
2018-03-27T21:46:13.078Z,8.20
2018-03-27T21:51:15.677Z,8.30
2018-03-27T21:56:18.541Z,8.40
2018-03-27T22:01:21.132Z,8.30
2018-03-27T22:06:29.862Z,8.20
2018-03-27T22:11:33.229Z,8.20
2018-03-27T22:16:36.098Z,8.20
2018-03-27T22:21:38.686Z,8.20
2018-03-27T22:26:42.046Z,7.90
2018-03-27T22:31:47.226Z,7.90
2018-03-27T22:37:04.491Z,7.80
2018-03-27T22:42:07.107Z,8.10
2018-03-27T22:47:09.889Z,7.90
2018-03-27T22:52:12.506Z,8.00
2018-03-27T22:57:15.147Z,8.10
2018-03-27T23:02:18.151Z,7.70
2018-03-27T23:07:20.749Z,7.90
2018-03-27T23:12:23.341Z,7.80
2018-03-27T23:17:26.696Z,7.70
2018-03-27T23:22:31.540Z,8.10
2018-03-27T23:27:34.133Z,7.90
2018-03-27T23:32:36.968Z,8.00
2018-03-27T23:37:39.557Z,8.00
2018-03-27T23:42:43.016Z,8.20
2018-03-27T23:47:45.630Z,8.20
2018-03-27T23:52:48.227Z,8.10
2018-03-27T23:57:50.859Z,7.90
